sensor_id;sensor_type;location;lat;lon;timestamp;P1;durP1;ratioP1;P2;durP2;ratioP2
26303;SDS011;70693;48.680;8.890;2023-07-08T00:00:21;6.05;;;3.88;;
26303;SDS011;70693;48.680;8.890;2023-07-08T00:02:48;6.53;;;4.38;;
26303;SDS011;70693;48.680;8.890;2023-07-08T00:05:16;6.70;;;4.13;;
26303;SDS011;70693;48.680;8.890;2023-07-08T00:07:43;6.03;;;3.92;;
26303;SDS011;70693;48.680;8.890;2023-07-08T00:12:39;5.72;;;4.22;;
26303;SDS011;70693;48.680;8.890;2023-07-08T00:15:07;6.70;;;4.10;;
26303;SDS011;70693;48.680;8.890;2023-07-08T00:17:33;6.28;;;4.00;;
26303;SDS011;70693;48.680;8.890;2023-07-08T00:19:58;6.20;;;4.20;;
26303;SDS011;70693;48.680;8.890;2023-07-08T00:22:24;5.95;;;4.20;;
26303;SDS011;70693;48.680;8.890;2023-07-08T00:24:50;5.40;;;3.90;;
26303;SDS011;70693;48.680;8.890;2023-07-08T00:27:16;5.43;;;3.95;;
26303;SDS011;70693;48.680;8.890;2023-07-08T00:29:42;5.35;;;4.22;;
26303;SDS011;70693;48.680;8.890;2023-07-08T00:32:12;6.07;;;4.70;;
26303;SDS011;70693;48.680;8.890;2023-07-08T00:34:40;7.90;;;4.25;;
26303;SDS011;70693;48.680;8.890;2023-07-08T00:37:12;6.35;;;4.70;;
26303;SDS011;70693;48.680;8.890;2023-07-08T00:39:38;5.72;;;4.32;;
26303;SDS011;70693;48.680;8.890;2023-07-08T00:42:10;6.25;;;4.40;;
26303;SDS011;70693;48.680;8.890;2023-07-08T00:44:42;7.05;;;4.53;;
26303;SDS011;70693;48.680;8.890;2023-07-08T00:47:09;5.90;;;4.25;;
26303;SDS011;70693;48.680;8.890;2023-07-08T00:49:41;7.15;;;4.40;;
26303;SDS011;70693;48.680;8.890;2023-07-08T00:55:07;7.57;;;4.40;;
26303;SDS011;70693;48.680;8.890;2023-07-08T00:57:35;7.28;;;4.50;;
26303;SDS011;70693;48.680;8.890;2023-07-08T01:00:07;7.13;;;4.65;;
26303;SDS011;70693;48.680;8.890;2023-07-08T01:02:46;5.10;;;3.90;;
26303;SDS011;70693;48.680;8.890;2023-07-08T01:05:20;6.63;;;4.60;;
26303;SDS011;70693;48.680;8.890;2023-07-08T01:07:51;5.63;;;4.47;;
26303;SDS011;70693;48.680;8.890;2023-07-08T01:10:22;6.38;;;4.25;;
26303;SDS011;70693;48.680;8.890;2023-07-08T01:12:59;4.75;;;3.78;;
26303;SDS011;70693;48.680;8.890;2023-07-08T01:15:32;5.22;;;4.20;;
26303;SDS011;70693;48.680;8.890;2023-07-08T01:18:03;6.57;;;4.40;;
26303;SDS011;70693;48.680;8.890;2023-07-08T01:20:29;8.73;;;4.68;;
26303;SDS011;70693;48.680;8.890;2023-07-08T01:22:55;6.15;;;4.57;;
26303;SDS011;70693;48.680;8.890;2023-07-08T01:25:21;6.88;;;4.40;;
26303;SDS011;70693;48.680;8.890;2023-07-08T01:27:49;8.27;;;4.60;;
26303;SDS011;70693;48.680;8.890;2023-07-08T01:30:18;7.15;;;4.30;;
26303;SDS011;70693;48.680;8.890;2023-07-08T01:32:51;6.45;;;4.40;;
26303;SDS011;70693;48.680;8.890;2023-07-08T01:35:21;6.90;;;4.38;;
26303;SDS011;70693;48.680;8.890;2023-07-08T01:37:53;5.75;;;4.60;;
26303;SDS011;70693;48.680;8.890;2023-07-08T01:40:27;9.05;;;4.85;;
26303;SDS011;70693;48.680;8.890;2023-07-08T01:42:58;5.70;;;4.30;;
26303;SDS011;70693;48.680;8.890;2023-07-08T01:45:25;5.13;;;4.07;;
26303;SDS011;70693;48.680;8.890;2023-07-08T01:47:59;7.60;;;4.38;;
26303;SDS011;70693;48.680;8.890;2023-07-08T01:53:29;6.35;;;4.50;;
26303;SDS011;70693;48.680;8.890;2023-07-08T01:55:59;7.32;;;4.50;;
26303;SDS011;70693;48.680;8.890;2023-07-08T01:58:25;6.25;;;4.15;;
26303;SDS011;70693;48.680;8.890;2023-07-08T02:00:51;6.18;;;4.20;;
26303;SDS011;70693;48.680;8.890;2023-07-08T02:03:17;6.60;;;4.35;;
26303;SDS011;70693;48.680;8.890;2023-07-08T02:05:43;6.80;;;4.38;;
26303;SDS011;70693;48.680;8.890;2023-07-08T02:08:09;6.43;;;4.53;;
26303;SDS011;70693;48.680;8.890;2023-07-08T02:10:34;8.85;;;5.35;;
26303;SDS011;70693;48.680;8.890;2023-07-08T02:13:01;6.05;;;4.57;;
26303;SDS011;70693;48.680;8.890;2023-07-08T02:15:27;5.40;;;4.53;;
26303;SDS011;70693;48.680;8.890;2023-07-08T02:17:53;6.32;;;4.38;;
26303;SDS011;70693;48.680;8.890;2023-07-08T02:20:19;6.00;;;4.70;;
26303;SDS011;70693;48.680;8.890;2023-07-08T02:22:45;5.53;;;4.20;;
26303;SDS011;70693;48.680;8.890;2023-07-08T02:25:10;6.65;;;4.60;;
26303;SDS011;70693;48.680;8.890;2023-07-08T02:27:36;6.32;;;4.47;;
26303;SDS011;70693;48.680;8.890;2023-07-08T02:30:03;6.80;;;4.72;;
26303;SDS011;70693;48.680;8.890;2023-07-08T02:32:29;6.18;;;4.30;;
26303;SDS011;70693;48.680;8.890;2023-07-08T02:34:55;7.90;;;4.50;;
26303;SDS011;70693;48.680;8.890;2023-07-08T02:37:20;7.22;;;4.47;;
26303;SDS011;70693;48.680;8.890;2023-07-08T02:39:46;6.95;;;4.72;;
26303;SDS011;70693;48.680;8.890;2023-07-08T02:42:11;7.78;;;5.15;;
26303;SDS011;70693;48.680;8.890;2023-07-08T02:44:37;7.15;;;4.38;;
26303;SDS011;70693;48.680;8.890;2023-07-08T02:47:03;6.53;;;4.32;;
26303;SDS011;70693;48.680;8.890;2023-07-08T02:49:29;7.53;;;4.82;;
26303;SDS011;70693;48.680;8.890;2023-07-08T02:51:55;8.13;;;4.50;;
26303;SDS011;70693;48.680;8.890;2023-07-08T02:54:20;6.60;;;4.20;;
26303;SDS011;70693;48.680;8.890;2023-07-08T02:56:46;8.50;;;5.00;;
26303;SDS011;70693;48.680;8.890;2023-07-08T02:59:12;6.53;;;4.80;;
26303;SDS011;70693;48.680;8.890;2023-07-08T03:01:37;7.65;;;4.70;;
26303;SDS011;70693;48.680;8.890;2023-07-08T03:04:09;6.22;;;4.78;;
26303;SDS011;70693;48.680;8.890;2023-07-08T03:06:41;8.50;;;4.82;;
26303;SDS011;70693;48.680;8.890;2023-07-08T03:09:10;6.45;;;4.68;;
26303;SDS011;70693;48.680;8.890;2023-07-08T03:11:37;6.38;;;4.82;;
26303;SDS011;70693;48.680;8.890;2023-07-08T03:14:03;9.15;;;5.00;;
26303;SDS011;70693;48.680;8.890;2023-07-08T03:16:29;6.40;;;4.70;;
26303;SDS011;70693;48.680;8.890;2023-07-08T03:18:55;7.03;;;4.97;;
26303;SDS011;70693;48.680;8.890;2023-07-08T03:21:21;9.02;;;5.20;;
26303;SDS011;70693;48.680;8.890;2023-07-08T03:23:48;7.22;;;4.60;;
26303;SDS011;70693;48.680;8.890;2023-07-08T03:26:15;6.45;;;4.68;;
26303;SDS011;70693;48.680;8.890;2023-07-08T03:28:42;6.57;;;4.90;;
26303;SDS011;70693;48.680;8.890;2023-07-08T03:31:08;7.57;;;4.70;;
26303;SDS011;70693;48.680;8.890;2023-07-08T03:33:35;9.35;;;5.35;;
26303;SDS011;70693;48.680;8.890;2023-07-08T03:36:01;7.35;;;4.90;;
26303;SDS011;70693;48.680;8.890;2023-07-08T03:38:28;7.78;;;4.32;;
26303;SDS011;70693;48.680;8.890;2023-07-08T03:40:55;7.28;;;4.72;;
26303;SDS011;70693;48.680;8.890;2023-07-08T03:43:20;7.20;;;4.75;;
26303;SDS011;70693;48.680;8.890;2023-07-08T03:45:46;6.60;;;4.10;;
26303;SDS011;70693;48.680;8.890;2023-07-08T03:48:12;8.00;;;4.60;;
26303;SDS011;70693;48.680;8.890;2023-07-08T03:50:38;7.22;;;4.78;;
26303;SDS011;70693;48.680;8.890;2023-07-08T03:53:04;5.78;;;4.53;;
26303;SDS011;70693;48.680;8.890;2023-07-08T03:55:30;8.15;;;4.78;;
26303;SDS011;70693;48.680;8.890;2023-07-08T03:57:56;7.35;;;4.30;;
26303;SDS011;70693;48.680;8.890;2023-07-08T04:00:21;7.20;;;4.90;;
26303;SDS011;70693;48.680;8.890;2023-07-08T04:02:47;7.78;;;4.70;;
26303;SDS011;70693;48.680;8.890;2023-07-08T04:05:17;8.52;;;5.00;;
26303;SDS011;70693;48.680;8.890;2023-07-08T04:07:44;6.93;;;4.93;;
26303;SDS011;70693;48.680;8.890;2023-07-08T04:10:10;6.70;;;4.40;;
26303;SDS011;70693;48.680;8.890;2023-07-08T04:12:37;6.10;;;4.70;;
26303;SDS011;70693;48.680;8.890;2023-07-08T04:15:03;7.18;;;4.82;;
26303;SDS011;70693;48.680;8.890;2023-07-08T04:17:29;6.63;;;4.88;;
26303;SDS011;70693;48.680;8.890;2023-07-08T04:19:55;8.07;;;5.13;;
26303;SDS011;70693;48.680;8.890;2023-07-08T04:22:29;7.07;;;5.00;;
26303;SDS011;70693;48.680;8.890;2023-07-08T04:24:54;8.13;;;4.40;;
26303;SDS011;70693;48.680;8.890;2023-07-08T04:27:20;6.93;;;5.05;;
26303;SDS011;70693;48.680;8.890;2023-07-08T04:29:46;7.55;;;5.00;;
26303;SDS011;70693;48.680;8.890;2023-07-08T04:32:12;7.97;;;5.32;;
26303;SDS011;70693;48.680;8.890;2023-07-08T04:34:38;7.10;;;5.15;;
26303;SDS011;70693;48.680;8.890;2023-07-08T04:37:04;9.10;;;4.82;;
26303;SDS011;70693;48.680;8.890;2023-07-08T04:39:31;6.63;;;5.13;;
26303;SDS011;70693;48.680;8.890;2023-07-08T04:41:56;7.07;;;5.15;;
26303;SDS011;70693;48.680;8.890;2023-07-08T04:44:22;10.00;;;5.55;;
26303;SDS011;70693;48.680;8.890;2023-07-08T04:46:50;7.65;;;5.45;;
26303;SDS011;70693;48.680;8.890;2023-07-08T04:49:19;7.60;;;5.38;;
26303;SDS011;70693;48.680;8.890;2023-07-08T04:51:45;7.30;;;5.25;;
26303;SDS011;70693;48.680;8.890;2023-07-08T04:54:11;7.97;;;4.72;;
26303;SDS011;70693;48.680;8.890;2023-07-08T04:56:41;6.45;;;5.15;;
26303;SDS011;70693;48.680;8.890;2023-07-08T04:59:09;7.68;;;5.13;;
26303;SDS011;70693;48.680;8.890;2023-07-08T05:01:36;7.78;;;5.40;;
26303;SDS011;70693;48.680;8.890;2023-07-08T05:04:03;9.70;;;5.30;;
26303;SDS011;70693;48.680;8.890;2023-07-08T05:06:30;7.75;;;5.03;;
26303;SDS011;70693;48.680;8.890;2023-07-08T05:08:57;10.18;;;5.25;;
26303;SDS011;70693;48.680;8.890;2023-07-08T05:11:24;7.13;;;5.32;;
26303;SDS011;70693;48.680;8.890;2023-07-08T05:13:50;6.93;;;5.22;;
26303;SDS011;70693;48.680;8.890;2023-07-08T05:16:16;7.70;;;5.57;;
26303;SDS011;70693;48.680;8.890;2023-07-08T05:18:42;6.32;;;4.72;;
26303;SDS011;70693;48.680;8.890;2023-07-08T05:21:09;7.20;;;4.88;;
26303;SDS011;70693;48.680;8.890;2023-07-08T05:23:35;8.15;;;5.28;;
26303;SDS011;70693;48.680;8.890;2023-07-08T05:26:01;7.30;;;5.13;;
26303;SDS011;70693;48.680;8.890;2023-07-08T05:28:28;7.63;;;4.78;;
26303;SDS011;70693;48.680;8.890;2023-07-08T05:30:54;7.38;;;5.15;;
26303;SDS011;70693;48.680;8.890;2023-07-08T05:33:23;6.72;;;4.80;;
26303;SDS011;70693;48.680;8.890;2023-07-08T05:35:49;6.32;;;4.88;;
26303;SDS011;70693;48.680;8.890;2023-07-08T05:38:15;6.55;;;4.88;;
26303;SDS011;70693;48.680;8.890;2023-07-08T05:40:41;8.27;;;5.20;;
26303;SDS011;70693;48.680;8.890;2023-07-08T05:43:07;8.18;;;5.57;;
26303;SDS011;70693;48.680;8.890;2023-07-08T05:45:32;6.78;;;4.95;;
26303;SDS011;70693;48.680;8.890;2023-07-08T05:48:00;7.95;;;5.05;;
26303;SDS011;70693;48.680;8.890;2023-07-08T05:50:25;5.88;;;4.78;;
26303;SDS011;70693;48.680;8.890;2023-07-08T05:52:51;6.65;;;4.65;;
26303;SDS011;70693;48.680;8.890;2023-07-08T05:55:16;7.97;;;4.78;;
26303;SDS011;70693;48.680;8.890;2023-07-08T05:57:42;7.10;;;4.60;;
26303;SDS011;70693;48.680;8.890;2023-07-08T06:00:08;7.07;;;5.25;;
26303;SDS011;70693;48.680;8.890;2023-07-08T06:02:34;7.80;;;5.10;;
26303;SDS011;70693;48.680;8.890;2023-07-08T06:04:59;6.75;;;4.75;;
26303;SDS011;70693;48.680;8.890;2023-07-08T06:07:25;7.63;;;5.38;;
26303;SDS011;70693;48.680;8.890;2023-07-08T06:09:51;7.35;;;4.82;;
26303;SDS011;70693;48.680;8.890;2023-07-08T06:12:17;7.25;;;4.93;;
26303;SDS011;70693;48.680;8.890;2023-07-08T06:14:43;6.38;;;4.65;;
26303;SDS011;70693;48.680;8.890;2023-07-08T06:17:09;13.73;;;5.80;;
26303;SDS011;70693;48.680;8.890;2023-07-08T06:19:34;14.23;;;6.15;;
26303;SDS011;70693;48.680;8.890;2023-07-08T06:22:00;9.88;;;6.10;;
26303;SDS011;70693;48.680;8.890;2023-07-08T06:24:26;9.55;;;6.20;;
26303;SDS011;70693;48.680;8.890;2023-07-08T06:26:51;12.02;;;6.80;;
26303;SDS011;70693;48.680;8.890;2023-07-08T06:29:17;10.75;;;6.72;;
26303;SDS011;70693;48.680;8.890;2023-07-08T06:31:44;10.30;;;6.63;;
26303;SDS011;70693;48.680;8.890;2023-07-08T06:34:10;7.88;;;5.50;;
26303;SDS011;70693;48.680;8.890;2023-07-08T06:36:35;10.25;;;5.93;;
26303;SDS011;70693;48.680;8.890;2023-07-08T06:39:01;7.78;;;5.68;;
26303;SDS011;70693;48.680;8.890;2023-07-08T06:41:27;8.00;;;5.55;;
26303;SDS011;70693;48.680;8.890;2023-07-08T06:43:53;7.47;;;5.50;;
26303;SDS011;70693;48.680;8.890;2023-07-08T06:46:19;8.60;;;5.68;;
26303;SDS011;70693;48.680;8.890;2023-07-08T06:48:45;10.15;;;5.72;;
26303;SDS011;70693;48.680;8.890;2023-07-08T06:51:10;9.25;;;5.93;;
26303;SDS011;70693;48.680;8.890;2023-07-08T06:53:36;9.55;;;5.85;;
26303;SDS011;70693;48.680;8.890;2023-07-08T06:56:01;10.10;;;5.45;;
26303;SDS011;70693;48.680;8.890;2023-07-08T06:58:27;8.98;;;6.05;;
26303;SDS011;70693;48.680;8.890;2023-07-08T07:00:53;8.75;;;5.32;;
26303;SDS011;70693;48.680;8.890;2023-07-08T07:03:19;8.57;;;5.07;;
26303;SDS011;70693;48.680;8.890;2023-07-08T07:05:44;7.90;;;5.40;;
26303;SDS011;70693;48.680;8.890;2023-07-08T07:08:10;7.15;;;4.97;;
26303;SDS011;70693;48.680;8.890;2023-07-08T07:10:36;7.72;;;5.18;;
26303;SDS011;70693;48.680;8.890;2023-07-08T07:13:02;8.52;;;5.38;;
26303;SDS011;70693;48.680;8.890;2023-07-08T07:15:27;9.82;;;5.85;;
26303;SDS011;70693;48.680;8.890;2023-07-08T07:17:56;7.18;;;5.30;;
26303;SDS011;70693;48.680;8.890;2023-07-08T07:20:22;7.70;;;5.05;;
26303;SDS011;70693;48.680;8.890;2023-07-08T07:22:49;6.55;;;4.78;;
26303;SDS011;70693;48.680;8.890;2023-07-08T07:25:16;7.85;;;4.72;;
26303;SDS011;70693;48.680;8.890;2023-07-08T07:27:43;7.07;;;4.90;;
26303;SDS011;70693;48.680;8.890;2023-07-08T07:30:09;7.07;;;5.15;;
26303;SDS011;70693;48.680;8.890;2023-07-08T07:32:39;6.53;;;4.57;;
26303;SDS011;70693;48.680;8.890;2023-07-08T07:35:09;6.43;;;5.13;;
26303;SDS011;70693;48.680;8.890;2023-07-08T07:37:39;8.35;;;5.15;;
26303;SDS011;70693;48.680;8.890;2023-07-08T07:40:12;6.80;;;4.80;;
26303;SDS011;70693;48.680;8.890;2023-07-08T07:42:40;6.70;;;4.63;;
26303;SDS011;70693;48.680;8.890;2023-07-08T07:45:08;6.85;;;4.80;;
26303;SDS011;70693;48.680;8.890;2023-07-08T07:47:34;7.18;;;4.70;;
26303;SDS011;70693;48.680;8.890;2023-07-08T07:50:00;5.88;;;4.50;;
26303;SDS011;70693;48.680;8.890;2023-07-08T07:52:27;6.63;;;4.57;;
26303;SDS011;70693;48.680;8.890;2023-07-08T07:54:54;6.55;;;4.25;;
26303;SDS011;70693;48.680;8.890;2023-07-08T07:57:20;6.07;;;4.47;;
26303;SDS011;70693;48.680;8.890;2023-07-08T07:59:47;6.63;;;4.50;;
26303;SDS011;70693;48.680;8.890;2023-07-08T08:02:13;6.20;;;4.45;;
26303;SDS011;70693;48.680;8.890;2023-07-08T08:04:40;6.03;;;4.22;;
26303;SDS011;70693;48.680;8.890;2023-07-08T08:07:05;5.93;;;4.40;;
26303;SDS011;70693;48.680;8.890;2023-07-08T08:09:31;6.68;;;4.90;;
26303;SDS011;70693;48.680;8.890;2023-07-08T08:11:57;6.35;;;4.65;;
26303;SDS011;70693;48.680;8.890;2023-07-08T08:14:22;6.13;;;4.53;;
26303;SDS011;70693;48.680;8.890;2023-07-08T08:16:48;6.82;;;4.38;;
26303;SDS011;70693;48.680;8.890;2023-07-08T08:19:13;5.07;;;4.15;;
26303;SDS011;70693;48.680;8.890;2023-07-08T08:21:39;5.38;;;4.22;;
26303;SDS011;70693;48.680;8.890;2023-07-08T08:24:05;5.40;;;4.03;;
26303;SDS011;70693;48.680;8.890;2023-07-08T08:26:31;6.15;;;4.18;;
26303;SDS011;70693;48.680;8.890;2023-07-08T08:28:56;5.50;;;4.18;;
26303;SDS011;70693;48.680;8.890;2023-07-08T08:31:22;5.22;;;4.20;;
26303;SDS011;70693;48.680;8.890;2023-07-08T08:33:48;6.07;;;4.43;;
26303;SDS011;70693;48.680;8.890;2023-07-08T08:36:14;5.57;;;4.03;;
26303;SDS011;70693;48.680;8.890;2023-07-08T08:38:39;6.28;;;4.07;;
26303;SDS011;70693;48.680;8.890;2023-07-08T08:41:15;5.50;;;3.83;;
26303;SDS011;70693;48.680;8.890;2023-07-08T08:43:44;5.00;;;3.80;;
26303;SDS011;70693;48.680;8.890;2023-07-08T08:46:16;5.82;;;4.40;;
26303;SDS011;70693;48.680;8.890;2023-07-08T08:48:51;5.43;;;3.70;;
26303;SDS011;70693;48.680;8.890;2023-07-08T08:51:27;5.35;;;3.88;;
26303;SDS011;70693;48.680;8.890;2023-07-08T08:53:56;5.53;;;4.15;;
26303;SDS011;70693;48.680;8.890;2023-07-08T08:56:24;5.68;;;4.10;;
26303;SDS011;70693;48.680;8.890;2023-07-08T08:58:57;5.40;;;4.20;;
26303;SDS011;70693;48.680;8.890;2023-07-08T09:01:42;5.47;;;3.72;;
26303;SDS011;70693;48.680;8.890;2023-07-08T09:04:19;5.70;;;3.70;;
26303;SDS011;70693;48.680;8.890;2023-07-08T09:06:48;5.95;;;3.92;;
26303;SDS011;70693;48.680;8.890;2023-07-08T09:09:21;5.30;;;3.88;;
26303;SDS011;70693;48.680;8.890;2023-07-08T09:11:57;5.05;;;3.85;;
26303;SDS011;70693;48.680;8.890;2023-07-08T09:14:29;6.10;;;3.80;;
26303;SDS011;70693;48.680;8.890;2023-07-08T09:25:39;4.50;;;3.67;;
26303;SDS011;70693;48.680;8.890;2023-07-08T09:28:13;4.47;;;3.33;;
26303;SDS011;70693;48.680;8.890;2023-07-08T09:30:39;5.38;;;3.78;;
26303;SDS011;70693;48.680;8.890;2023-07-08T09:33:06;5.97;;;4.03;;
26303;SDS011;70693;48.680;8.890;2023-07-08T09:35:40;5.50;;;3.70;;
26303;SDS011;70693;48.680;8.890;2023-07-08T09:38:18;5.50;;;3.72;;
26303;SDS011;70693;48.680;8.890;2023-07-08T09:40:51;5.57;;;3.22;;
26303;SDS011;70693;48.680;8.890;2023-07-08T09:43:30;5.00;;;3.50;;
26303;SDS011;70693;48.680;8.890;2023-07-08T09:46:02;6.88;;;3.85;;
26303;SDS011;70693;48.680;8.890;2023-07-08T09:48:29;5.20;;;3.55;;
26303;SDS011;70693;48.680;8.890;2023-07-08T09:50:58;4.30;;;3.28;;
26303;SDS011;70693;48.680;8.890;2023-07-08T09:53:24;4.25;;;3.35;;
26303;SDS011;70693;48.680;8.890;2023-07-08T09:55:51;4.13;;;3.42;;
26303;SDS011;70693;48.680;8.890;2023-07-08T09:58:21;5.72;;;3.15;;
26303;SDS011;70693;48.680;8.890;2023-07-08T10:03:32;5.35;;;3.50;;
26303;SDS011;70693;48.680;8.890;2023-07-08T10:06:03;4.68;;;3.22;;
26303;SDS011;70693;48.680;8.890;2023-07-08T10:08:39;6.35;;;3.50;;
26303;SDS011;70693;48.680;8.890;2023-07-08T10:14:00;4.15;;;3.15;;
26303;SDS011;70693;48.680;8.890;2023-07-08T10:16:31;4.53;;;3.17;;
26303;SDS011;70693;48.680;8.890;2023-07-08T10:18:58;4.03;;;3.30;;
26303;SDS011;70693;48.680;8.890;2023-07-08T10:27:03;3.92;;;2.88;;
26303;SDS011;70693;48.680;8.890;2023-07-08T10:30:10;5.50;;;3.00;;
26303;SDS011;70693;48.680;8.890;2023-07-08T10:35:27;4.18;;;3.22;;
26303;SDS011;70693;48.680;8.890;2023-07-08T10:40:54;4.45;;;3.05;;
26303;SDS011;70693;48.680;8.890;2023-07-08T10:46:14;5.13;;;2.97;;
26303;SDS011;70693;48.680;8.890;2023-07-08T11:06:55;6.22;;;2.63;;
26303;SDS011;70693;48.680;8.890;2023-07-08T11:09:29;4.95;;;2.42;;
26303;SDS011;70693;48.680;8.890;2023-07-08T11:12:04;7.28;;;2.50;;
26303;SDS011;70693;48.680;8.890;2023-07-08T11:14:49;3.88;;;2.40;;
26303;SDS011;70693;48.680;8.890;2023-07-08T11:17:25;3.97;;;2.60;;
26303;SDS011;70693;48.680;8.890;2023-07-08T11:20:13;3.88;;;2.05;;
26303;SDS011;70693;48.680;8.890;2023-07-08T11:22:46;4.22;;;2.63;;
26303;SDS011;70693;48.680;8.890;2023-07-08T11:25:33;3.97;;;2.28;;
26303;SDS011;70693;48.680;8.890;2023-07-08T11:28:00;5.25;;;2.20;;
26303;SDS011;70693;48.680;8.890;2023-07-08T11:30:30;3.15;;;1.92;;
26303;SDS011;70693;48.680;8.890;2023-07-08T11:33:03;7.72;;;2.15;;
26303;SDS011;70693;48.680;8.890;2023-07-08T11:38:02;3.70;;;2.30;;
26303;SDS011;70693;48.680;8.890;2023-07-08T11:40:29;3.53;;;2.35;;
26303;SDS011;70693;48.680;8.890;2023-07-08T11:43:02;3.97;;;2.22;;
26303;SDS011;70693;48.680;8.890;2023-07-08T11:45:39;3.35;;;2.30;;
26303;SDS011;70693;48.680;8.890;2023-07-08T11:50:49;3.97;;;2.25;;
26303;SDS011;70693;48.680;8.890;2023-07-08T11:56:17;3.47;;;2.30;;
26303;SDS011;70693;48.680;8.890;2023-07-08T12:04:15;2.65;;;1.83;;
26303;SDS011;70693;48.680;8.890;2023-07-08T12:06:47;3.72;;;1.80;;
26303;SDS011;70693;48.680;8.890;2023-07-08T12:09:15;4.63;;;2.00;;
26303;SDS011;70693;48.680;8.890;2023-07-08T12:12:05;4.47;;;2.25;;
26303;SDS011;70693;48.680;8.890;2023-07-08T12:14:32;4.18;;;2.10;;
26303;SDS011;70693;48.680;8.890;2023-07-08T12:16:58;4.65;;;2.40;;
26303;SDS011;70693;48.680;8.890;2023-07-08T12:19:25;3.45;;;2.08;;
26303;SDS011;70693;48.680;8.890;2023-07-08T12:21:54;2.95;;;1.98;;
26303;SDS011;70693;48.680;8.890;2023-07-08T12:24:20;2.95;;;2.03;;
26303;SDS011;70693;48.680;8.890;2023-07-08T12:26:52;2.22;;;1.75;;
26303;SDS011;70693;48.680;8.890;2023-07-08T12:29:18;3.53;;;2.20;;
26303;SDS011;70693;48.680;8.890;2023-07-08T12:31:44;4.70;;;2.13;;
26303;SDS011;70693;48.680;8.890;2023-07-08T12:34:14;3.60;;;1.90;;
26303;SDS011;70693;48.680;8.890;2023-07-08T12:36:45;4.07;;;2.25;;
26303;SDS011;70693;48.680;8.890;2023-07-08T12:39:13;4.40;;;2.05;;
26303;SDS011;70693;48.680;8.890;2023-07-08T12:41:41;4.07;;;1.77;;
26303;SDS011;70693;48.680;8.890;2023-07-08T12:44:17;3.30;;;2.10;;
26303;SDS011;70693;48.680;8.890;2023-07-08T12:46:47;3.97;;;1.92;;
26303;SDS011;70693;48.680;8.890;2023-07-08T12:49:15;3.22;;;1.70;;
26303;SDS011;70693;48.680;8.890;2023-07-08T12:51:46;3.25;;;1.80;;
26303;SDS011;70693;48.680;8.890;2023-07-08T12:54:13;4.53;;;2.05;;
26303;SDS011;70693;48.680;8.890;2023-07-08T12:56:40;2.78;;;2.08;;
26303;SDS011;70693;48.680;8.890;2023-07-08T12:59:11;2.80;;;1.90;;
26303;SDS011;70693;48.680;8.890;2023-07-08T13:01:42;3.53;;;2.03;;
26303;SDS011;70693;48.680;8.890;2023-07-08T13:04:10;3.67;;;1.80;;
26303;SDS011;70693;48.680;8.890;2023-07-08T13:06:37;4.18;;;2.00;;
26303;SDS011;70693;48.680;8.890;2023-07-08T13:09:07;3.50;;;1.80;;
26303;SDS011;70693;48.680;8.890;2023-07-08T13:11:52;3.08;;;1.70;;
26303;SDS011;70693;48.680;8.890;2023-07-08T13:14:20;2.88;;;1.70;;
26303;SDS011;70693;48.680;8.890;2023-07-08T13:16:48;5.05;;;1.75;;
26303;SDS011;70693;48.680;8.890;2023-07-08T13:19:14;2.40;;;1.80;;
26303;SDS011;70693;48.680;8.890;2023-07-08T13:21:40;2.28;;;1.60;;
26303;SDS011;70693;48.680;8.890;2023-07-08T13:24:07;3.25;;;1.75;;
26303;SDS011;70693;48.680;8.890;2023-07-08T13:26:36;3.53;;;1.70;;
26303;SDS011;70693;48.680;8.890;2023-07-08T13:29:14;2.95;;;1.50;;
26303;SDS011;70693;48.680;8.890;2023-07-08T13:31:46;4.65;;;1.83;;
26303;SDS011;70693;48.680;8.890;2023-07-08T13:34:19;3.05;;;1.92;;
26303;SDS011;70693;48.680;8.890;2023-07-08T13:36:49;2.85;;;1.60;;
26303;SDS011;70693;48.680;8.890;2023-07-08T13:39:26;1.92;;;1.33;;
26303;SDS011;70693;48.680;8.890;2023-07-08T13:41:54;2.63;;;1.60;;
26303;SDS011;70693;48.680;8.890;2023-07-08T13:44:20;3.50;;;2.03;;
26303;SDS011;70693;48.680;8.890;2023-07-08T13:46:53;2.65;;;1.63;;
26303;SDS011;70693;48.680;8.890;2023-07-08T13:52:20;3.13;;;1.80;;
26303;SDS011;70693;48.680;8.890;2023-07-08T13:54:48;3.17;;;1.70;;
26303;SDS011;70693;48.680;8.890;2023-07-08T13:57:18;2.45;;;1.58;;
26303;SDS011;70693;48.680;8.890;2023-07-08T13:59:46;2.55;;;1.50;;
26303;SDS011;70693;48.680;8.890;2023-07-08T14:02:30;3.63;;;1.77;;
26303;SDS011;70693;48.680;8.890;2023-07-08T14:04:57;2.10;;;1.60;;
26303;SDS011;70693;48.680;8.890;2023-07-08T14:07:28;2.08;;;1.52;;
26303;SDS011;70693;48.680;8.890;2023-07-08T14:09:56;2.30;;;1.70;;
26303;SDS011;70693;48.680;8.890;2023-07-08T14:12:22;3.28;;;1.70;;
26303;SDS011;70693;48.680;8.890;2023-07-08T14:14:48;2.08;;;1.50;;
26303;SDS011;70693;48.680;8.890;2023-07-08T14:17:32;2.33;;;1.58;;
26303;SDS011;70693;48.680;8.890;2023-07-08T14:19:58;2.28;;;1.50;;
26303;SDS011;70693;48.680;8.890;2023-07-08T14:22:25;3.40;;;1.63;;
26303;SDS011;70693;48.680;8.890;2023-07-08T14:24:52;2.20;;;1.38;;
26303;SDS011;70693;48.680;8.890;2023-07-08T14:27:18;2.03;;;1.40;;
26303;SDS011;70693;48.680;8.890;2023-07-08T14:29:48;2.40;;;1.80;;
26303;SDS011;70693;48.680;8.890;2023-07-08T14:32:22;2.45;;;1.40;;
26303;SDS011;70693;48.680;8.890;2023-07-08T14:34:52;2.25;;;1.70;;
26303;SDS011;70693;48.680;8.890;2023-07-08T14:37:20;2.53;;;1.70;;
26303;SDS011;70693;48.680;8.890;2023-07-08T14:39:46;1.85;;;1.42;;
26303;SDS011;70693;48.680;8.890;2023-07-08T14:42:13;2.67;;;1.55;;
26303;SDS011;70693;48.680;8.890;2023-07-08T14:44:42;2.60;;;1.52;;
26303;SDS011;70693;48.680;8.890;2023-07-08T14:47:13;3.08;;;1.35;;
26303;SDS011;70693;48.680;8.890;2023-07-08T14:49:40;2.10;;;1.50;;
26303;SDS011;70693;48.680;8.890;2023-07-08T14:52:06;2.58;;;1.52;;
26303;SDS011;70693;48.680;8.890;2023-07-08T14:54:32;2.10;;;1.40;;
26303;SDS011;70693;48.680;8.890;2023-07-08T14:56:58;2.55;;;1.45;;
26303;SDS011;70693;48.680;8.890;2023-07-08T14:59:27;2.05;;;1.48;;
26303;SDS011;70693;48.680;8.890;2023-07-08T15:01:56;2.85;;;1.45;;
26303;SDS011;70693;48.680;8.890;2023-07-08T15:04:23;2.92;;;1.67;;
26303;SDS011;70693;48.680;8.890;2023-07-08T15:06:49;2.40;;;1.52;;
26303;SDS011;70693;48.680;8.890;2023-07-08T15:09:16;2.42;;;1.48;;
26303;SDS011;70693;48.680;8.890;2023-07-08T15:11:43;3.08;;;1.50;;
26303;SDS011;70693;48.680;8.890;2023-07-08T15:14:27;1.85;;;1.48;;
26303;SDS011;70693;48.680;8.890;2023-07-08T15:16:53;2.95;;;1.85;;
26303;SDS011;70693;48.680;8.890;2023-07-08T15:19:19;2.95;;;1.70;;
26303;SDS011;70693;48.680;8.890;2023-07-08T15:21:45;3.38;;;1.63;;
26303;SDS011;70693;48.680;8.890;2023-07-08T15:24:12;2.08;;;1.63;;
26303;SDS011;70693;48.680;8.890;2023-07-08T15:26:39;2.30;;;1.60;;
26303;SDS011;70693;48.680;8.890;2023-07-08T15:29:14;2.67;;;1.65;;
26303;SDS011;70693;48.680;8.890;2023-07-08T15:31:42;2.30;;;1.67;;
26303;SDS011;70693;48.680;8.890;2023-07-08T15:34:15;2.83;;;1.60;;
26303;SDS011;70693;48.680;8.890;2023-07-08T15:36:46;2.15;;;1.40;;
26303;SDS011;70693;48.680;8.890;2023-07-08T15:39:12;2.50;;;1.63;;
26303;SDS011;70693;48.680;8.890;2023-07-08T15:41:40;1.80;;;1.42;;
26303;SDS011;70693;48.680;8.890;2023-07-08T15:44:13;2.00;;;1.33;;
26303;SDS011;70693;48.680;8.890;2023-07-08T15:46:43;2.28;;;1.58;;
26303;SDS011;70693;48.680;8.890;2023-07-08T15:51:47;2.75;;;1.55;;
26303;SDS011;70693;48.680;8.890;2023-07-08T15:54:14;2.47;;;1.50;;
26303;SDS011;70693;48.680;8.890;2023-07-08T15:56:40;1.80;;;1.38;;
26303;SDS011;70693;48.680;8.890;2023-07-08T15:59:26;2.13;;;1.10;;
26303;SDS011;70693;48.680;8.890;2023-07-08T16:01:54;1.50;;;1.27;;
26303;SDS011;70693;48.680;8.890;2023-07-08T16:04:25;2.38;;;1.50;;
26303;SDS011;70693;48.680;8.890;2023-07-08T16:06:56;1.75;;;1.30;;
26303;SDS011;70693;48.680;8.890;2023-07-08T16:09:22;2.08;;;1.45;;